Weather at Ridgely Airpark

Public forecast

Using degrees Fahrenheit for public forecast. Weather courtesy of forecast.io.

Closest aviation weather report (METAR) to Ridgely Airpark

Closest report is Easton Airport / Newnam Field, 13.7 nm (25.5 km) SW. Retrieved 2020/09/26 03:35 UTC (1 hour ago):

KESN 260335Z AUTO 12004KT 10SM -RA SCT017 SCT033 OVC041 18/16 A3013 RMK AO2 T01840159

Closest aviation forecast (TAF) to Ridgely Airpark

Closest forecast is Dover Air Force Base, 21.0 nm (38.8 km) ENE. Retrieved 2020-09-26 00:17 UTC (5 hours ago):

TAF KDOV 260000Z 2600/2706 19006KT 9999 BKN050 QNH3010INS BECMG 2601/2602 15006KT 9000 -RA OVC050 QNH3006INS BECMG 2607/2608 12009KT 9999 NSW BKN020 QNH2999INS TX23/2619Z TN17/2610Z